createdAt,value
2019-05-05T00:01:19.282Z,12.60
2019-05-05T00:04:04.499Z,12.59
2019-05-05T00:06:36.765Z,12.57
2019-05-05T00:09:09.929Z,12.52
2019-05-05T00:11:51.133Z,12.54
2019-05-05T00:14:30.473Z,12.52
2019-05-05T00:17:05.231Z,12.54
2019-05-05T00:19:38.360Z,12.51
2019-05-05T00:22:10.204Z,12.47
2019-05-05T00:24:44.417Z,12.45
2019-05-05T00:27:15.125Z,12.39
2019-05-05T00:29:46.116Z,12.39
2019-05-05T00:32:16.952Z,12.33
2019-05-05T00:34:48.310Z,12.30
2019-05-05T00:37:19.278Z,12.29
2019-05-05T00:39:51.442Z,12.26
2019-05-05T00:42:24.599Z,12.22
2019-05-05T00:44:56.243Z,12.21
2019-05-05T00:47:29.358Z,12.16
2019-05-05T00:50:00.271Z,12.18
2019-05-05T00:52:31.929Z,12.18
2019-05-05T00:55:04.596Z,12.15
2019-05-05T00:57:37.796Z,12.12
2019-05-05T01:00:20.044Z,12.10
2019-05-05T01:02:54.187Z,12.06
2019-05-05T01:05:30.605Z,12.05
2019-05-05T01:08:01.511Z,11.99
2019-05-05T01:10:35.719Z,11.95
2019-05-05T01:13:08.790Z,11.95
2019-05-05T01:15:40.160Z,11.94
2019-05-05T01:18:11.402Z,11.95
2019-05-05T01:20:42.256Z,11.94
2019-05-05T01:23:15.035Z,11.91
2019-05-05T01:25:48.644Z,11.88
2019-05-05T01:28:18.071Z,11.79
2019-05-05T01:30:51.369Z,11.75
2019-05-05T01:33:30.848Z,11.73
2019-05-05T01:36:02.105Z,11.71
2019-05-05T01:38:35.835Z,11.72
2019-05-05T01:41:14.799Z,11.69
2019-05-05T01:43:45.963Z,11.63
2019-05-05T01:46:24.580Z,11.61
2019-05-05T01:48:55.628Z,11.58
2019-05-05T01:51:26.470Z,11.56
2019-05-05T01:53:57.697Z,11.56
2019-05-05T01:56:35.113Z,11.46
2019-05-05T01:59:07.959Z,11.43
2019-05-05T02:01:39.584Z,11.44
2019-05-05T02:04:11.694Z,11.42
2019-05-05T02:06:44.305Z,11.42
2019-05-05T02:09:15.892Z,11.41
2019-05-05T02:11:47.473Z,11.43
2019-05-05T02:14:18.404Z,11.41
2019-05-05T02:16:49.448Z,11.40
2019-05-05T02:19:20.391Z,11.40
2019-05-05T02:21:51.627Z,11.43
2019-05-05T02:24:22.340Z,11.45
2019-05-05T02:26:55.034Z,11.40
2019-05-05T02:29:27.919Z,11.34
2019-05-05T02:32:20.763Z,11.23
2019-05-05T02:34:58.407Z,11.30
2019-05-05T02:37:29.920Z,11.26
2019-05-05T02:40:07.354Z,11.28
2019-05-05T02:42:36.002Z,11.29
2019-05-05T02:45:09.673Z,11.38
2019-05-05T02:47:48.853Z,11.46
2019-05-05T02:50:20.132Z,11.46
2019-05-05T02:52:53.529Z,11.40
2019-05-05T02:55:24.747Z,11.41
2019-05-05T02:57:56.458Z,11.49
2019-05-05T03:00:29.445Z,11.50
2019-05-05T03:03:04.311Z,11.55
2019-05-05T03:05:34.109Z,11.60
2019-05-05T03:08:05.816Z,11.63
2019-05-05T03:10:38.471Z,11.65
2019-05-05T03:13:09.616Z,11.72
2019-05-05T03:15:51.246Z,11.79
2019-05-05T03:18:22.188Z,11.79
2019-05-05T03:21:04.542Z,11.86
2019-05-05T03:23:27.164Z,11.92
2019-05-05T03:25:58.377Z,12.00
2019-05-05T03:28:34.437Z,12.05
2019-05-05T03:31:06.178Z,12.12
2019-05-05T03:33:39.737Z,12.18
2019-05-05T03:36:10.926Z,12.19
2019-05-05T03:38:44.172Z,12.24
2019-05-05T03:41:17.001Z,12.34
2019-05-05T03:44:04.560Z,12.33
2019-05-05T03:46:35.979Z,12.42
2019-05-05T03:49:07.530Z,12.44
2019-05-05T03:51:43.887Z,12.51
2019-05-05T03:54:15.672Z,12.55
2019-05-05T03:56:47.027Z,12.69
2019-05-05T03:59:19.187Z,12.76
2019-05-05T04:02:03.954Z,12.87
2019-05-05T04:04:44.138Z,12.94
2019-05-05T04:07:16.344Z,13.00
2019-05-05T04:09:47.281Z,13.10
2019-05-05T04:12:18.111Z,13.16
2019-05-05T04:14:50.020Z,13.29
2019-05-05T04:17:36.065Z,13.39
2019-05-05T04:20:21.440Z,13.32
2019-05-05T04:22:54.265Z,13.41
2019-05-05T04:25:25.857Z,13.47
2019-05-05T04:27:57.535Z,13.52
2019-05-05T04:30:28.445Z,13.64
2019-05-05T04:32:59.918Z,13.74
2019-05-05T04:35:33.952Z,13.80
2019-05-05T04:38:06.298Z,13.85
2019-05-05T04:40:38.430Z,13.94
2019-05-05T04:43:08.991Z,13.99
2019-05-05T04:45:43.480Z,14.10
2019-05-05T04:48:15.780Z,14.21
2019-05-05T04:50:58.434Z,14.35
2019-05-05T04:53:34.661Z,14.52
2019-05-05T04:56:05.693Z,14.74
2019-05-05T04:58:36.424Z,14.91
2019-05-05T05:01:07.258Z,14.93
2019-05-05T05:03:43.931Z,15.06
2019-05-05T05:06:16.081Z,15.11
2019-05-05T05:08:47.113Z,15.26
2019-05-05T05:11:18.490Z,15.37
2019-05-05T05:13:50.445Z,15.33
2019-05-05T05:16:21.176Z,15.37
2019-05-05T05:18:53.788Z,15.31
2019-05-05T05:21:25.408Z,15.44
2019-05-05T05:23:56.764Z,15.58
2019-05-05T05:26:27.937Z,15.67
2019-05-05T05:28:58.612Z,15.78
2019-05-05T05:31:29.675Z,15.91
2019-05-05T05:34:05.548Z,16.12
2019-05-05T05:36:36.345Z,16.25
2019-05-05T05:39:26.450Z,16.31
2019-05-05T05:41:57.340Z,16.33
2019-05-05T05:44:33.818Z,16.25
2019-05-05T05:47:08.983Z,16.28
2019-05-05T05:49:43.885Z,16.31
2019-05-05T05:52:19.217Z,16.48
2019-05-05T05:54:49.990Z,16.65
2019-05-05T05:57:21.701Z,16.87
2019-05-05T05:59:54.755Z,16.84
2019-05-05T06:02:25.042Z,16.74
2019-05-05T06:04:58.099Z,17.08
2019-05-05T06:07:29.008Z,17.28
2019-05-05T06:10:00.927Z,17.30
2019-05-05T06:12:33.588Z,17.41
2019-05-05T06:15:06.596Z,17.42
2019-05-05T06:17:37.319Z,17.52
2019-05-05T06:20:08.156Z,17.55
2019-05-05T06:22:38.700Z,17.74
2019-05-05T06:25:10.869Z,17.60
2019-05-05T06:27:42.096Z,17.60
2019-05-05T06:30:13.807Z,17.82
2019-05-05T06:32:45.732Z,17.88
2019-05-05T06:35:16.659Z,17.85
2019-05-05T06:37:55.174Z,17.77
2019-05-05T06:40:45.252Z,17.86
2019-05-05T06:43:34.790Z,17.93
2019-05-05T06:46:19.026Z,18.14
2019-05-05T06:48:49.908Z,18.21
2019-05-05T06:51:20.641Z,18.36
2019-05-05T06:53:53.875Z,18.58
2019-05-05T06:56:28.167Z,18.75
2019-05-05T06:59:00.823Z,18.81
2019-05-05T07:01:33.671Z,19.00
2019-05-05T07:04:04.018Z,19.14
2019-05-05T07:06:35.110Z,19.16
2019-05-05T07:09:07.291Z,19.35
2019-05-05T07:11:38.173Z,19.38
2019-05-05T07:14:08.838Z,19.32
2019-05-05T07:16:39.335Z,19.41
2019-05-05T07:19:11.485Z,19.52
2019-05-05T07:21:43.638Z,19.48
2019-05-05T07:24:14.692Z,19.55
2019-05-05T07:26:45.532Z,19.68
2019-05-05T07:29:18.164Z,19.94
2019-05-05T07:31:50.171Z,20.02
2019-05-05T07:34:21.420Z,20.17
2019-05-05T07:36:51.954Z,20.27
2019-05-05T07:39:23.895Z,20.11
2019-05-05T07:41:55.174Z,20.13
2019-05-05T07:44:29.573Z,20.22
2019-05-05T07:46:58.766Z,20.33
2019-05-05T07:49:30.815Z,20.52
2019-05-05T07:52:04.121Z,20.55
2019-05-05T07:54:34.997Z,20.67
2019-05-05T07:57:05.998Z,20.83
2019-05-05T07:59:36.828Z,20.84
2019-05-05T08:02:07.564Z,20.72
2019-05-05T08:04:38.910Z,20.81
2019-05-05T08:07:09.616Z,21.00
2019-05-05T08:09:40.474Z,20.83
2019-05-05T08:12:13.558Z,20.94
2019-05-05T08:14:44.407Z,20.96
2019-05-05T08:17:20.447Z,21.13
2019-05-05T08:19:57.420Z,21.53
2019-05-05T08:22:27.862Z,21.43
2019-05-05T08:25:04.056Z,21.90
2019-05-05T08:27:41.617Z,22.08
2019-05-05T08:30:16.858Z,22.87
2019-05-05T08:32:49.534Z,23.46
2019-05-05T08:35:23.793Z,23.79
2019-05-05T08:37:57.146Z,24.16
2019-05-05T08:40:30.634Z,24.35
2019-05-05T08:43:01.164Z,24.33
2019-05-05T08:45:32.081Z,25.01
2019-05-05T08:48:04.902Z,24.88
2019-05-05T08:50:35.845Z,24.48
2019-05-05T08:53:08.493Z,23.56
2019-05-05T08:55:41.630Z,22.95
2019-05-05T08:58:12.120Z,22.75
2019-05-05T09:00:44.380Z,22.64
2019-05-05T09:03:15.011Z,23.20
2019-05-05T09:05:47.995Z,23.24
2019-05-05T09:08:19.737Z,24.02
2019-05-05T09:10:53.049Z,23.94
2019-05-05T09:13:24.643Z,24.49
2019-05-05T09:15:55.110Z,25.14
2019-05-05T09:18:25.956Z,26.03
2019-05-05T09:20:56.692Z,25.97
2019-05-05T09:23:28.655Z,26.56
2019-05-05T09:26:00.817Z,26.03
2019-05-05T09:28:49.755Z,25.54
2019-05-05T09:31:24.196Z,24.86
2019-05-05T09:33:55.028Z,25.62
2019-05-05T09:36:25.778Z,26.02
2019-05-05T09:38:56.597Z,25.64
2019-05-05T09:41:27.334Z,25.12
2019-05-05T09:43:57.961Z,24.89
2019-05-05T09:46:30.136Z,26.04
2019-05-05T09:49:01.085Z,27.38
2019-05-05T09:51:34.562Z,28.44
2019-05-05T09:54:14.110Z,27.79
2019-05-05T09:56:37.456Z,28.11
2019-05-05T09:59:09.426Z,28.29
2019-05-05T10:01:39.843Z,26.99
2019-05-05T10:04:13.736Z,26.49
2019-05-05T10:06:47.740Z,27.55
2019-05-05T10:09:18.188Z,28.62
2019-05-05T10:11:50.467Z,28.71
2019-05-05T10:14:23.042Z,28.89
2019-05-05T10:16:54.519Z,28.52
2019-05-05T10:19:25.421Z,28.13
2019-05-05T10:21:57.275Z,28.70
2019-05-05T10:24:31.136Z,29.74
2019-05-05T10:27:01.360Z,29.04
2019-05-05T10:29:32.523Z,27.91
2019-05-05T10:32:05.941Z,28.69
2019-05-05T10:34:36.672Z,29.42
2019-05-05T10:37:08.413Z,28.47
2019-05-05T10:39:40.493Z,27.14
2019-05-05T10:42:11.227Z,26.97
2019-05-05T10:44:44.561Z,28.34
2019-05-05T10:47:15.964Z,30.14
2019-05-05T10:49:46.801Z,29.80
2019-05-05T10:52:17.842Z,29.32
2019-05-05T10:54:48.575Z,27.45
2019-05-05T10:57:19.800Z,28.56
2019-05-05T10:59:50.556Z,30.33
2019-05-05T11:02:21.388Z,31.22
2019-05-05T11:04:54.723Z,30.26
2019-05-05T11:07:25.411Z,28.27
2019-05-05T11:09:55.939Z,26.72
2019-05-05T11:12:27.390Z,27.33
2019-05-05T11:14:57.642Z,27.19
2019-05-05T11:17:28.455Z,27.00
2019-05-05T11:19:59.217Z,27.81
2019-05-05T11:22:31.611Z,26.44
2019-05-05T11:25:02.273Z,28.61
2019-05-05T11:27:34.575Z,28.46
2019-05-05T11:30:14.151Z,27.34
2019-05-05T11:33:04.001Z,26.77
2019-05-05T11:35:48.840Z,26.83
2019-05-05T11:38:19.581Z,27.10
2019-05-05T11:40:51.011Z,26.00
2019-05-05T11:43:24.702Z,26.04
2019-05-05T11:45:56.179Z,25.58
2019-05-05T11:48:26.899Z,25.43
2019-05-05T11:50:58.055Z,25.28
2019-05-05T11:53:29.424Z,26.24
2019-05-05T11:56:00.502Z,30.34
2019-05-05T11:58:34.111Z,32.63
2019-05-05T12:01:06.708Z,34.64
2019-05-05T12:03:37.889Z,34.59
2019-05-05T12:06:08.679Z,33.61
2019-05-05T12:08:42.766Z,32.06
2019-05-05T12:11:15.124Z,32.17
2019-05-05T12:13:46.672Z,29.86
2019-05-05T12:16:18.983Z,27.77
2019-05-05T12:18:49.821Z,28.04
2019-05-05T12:21:21.248Z,32.35
2019-05-05T12:23:52.099Z,33.16
2019-05-05T12:26:36.666Z,30.03
2019-05-05T12:29:09.352Z,28.18
2019-05-05T12:31:44.403Z,26.31
2019-05-05T12:34:16.959Z,25.13
2019-05-05T12:36:48.295Z,25.11
2019-05-05T12:39:20.869Z,25.08
2019-05-05T12:41:54.089Z,25.26
2019-05-05T12:44:27.031Z,26.41
2019-05-05T12:47:05.865Z,27.83
2019-05-05T12:49:37.726Z,27.25
2019-05-05T12:52:09.066Z,27.67
2019-05-05T12:54:39.496Z,27.01
2019-05-05T12:57:13.692Z,28.20
2019-05-05T12:59:44.478Z,27.84
2019-05-05T13:02:15.394Z,30.92
2019-05-05T13:04:46.076Z,32.64
2019-05-05T13:07:16.951Z,33.08
2019-05-05T13:09:47.679Z,30.95
2019-05-05T13:12:18.617Z,29.43
2019-05-05T13:14:50.812Z,27.63
2019-05-05T13:17:21.720Z,26.25
2019-05-05T13:19:57.470Z,28.40
2019-05-05T13:22:48.400Z,30.02
2019-05-05T13:25:27.200Z,30.16
2019-05-05T13:27:57.964Z,29.79
2019-05-05T13:30:28.662Z,27.80
2019-05-05T13:33:01.138Z,26.76
2019-05-05T13:35:33.940Z,27.28
2019-05-05T13:38:04.345Z,28.67
2019-05-05T13:40:35.687Z,32.91
2019-05-05T13:43:06.522Z,33.01
2019-05-05T13:45:38.908Z,33.19
2019-05-05T13:48:10.535Z,30.73
2019-05-05T13:50:46.594Z,28.31
2019-05-05T13:53:16.944Z,25.93
2019-05-05T13:55:47.863Z,25.78
2019-05-05T13:58:21.771Z,25.90
2019-05-05T14:00:52.205Z,25.61
2019-05-05T14:03:23.516Z,25.16
2019-05-05T14:05:55.506Z,26.65
2019-05-05T14:08:26.759Z,26.80
2019-05-05T14:10:57.773Z,26.72
2019-05-05T14:13:34.035Z,26.21
2019-05-05T14:16:04.106Z,27.88
2019-05-05T14:18:35.373Z,31.09
2019-05-05T14:21:06.018Z,32.66
2019-05-05T14:23:40.771Z,33.58
2019-05-05T14:26:24.721Z,33.44
2019-05-05T14:28:45.080Z,34.05
2019-05-05T14:31:17.328Z,35.16
2019-05-05T14:33:49.699Z,35.73
2019-05-05T14:36:31.106Z,35.73
2019-05-05T14:39:04.337Z,34.64
2019-05-05T14:41:35.233Z,34.09
2019-05-05T14:44:05.979Z,34.21
2019-05-05T14:46:37.726Z,33.97
2019-05-05T14:49:09.416Z,32.56
2019-05-05T14:51:40.639Z,31.30
2019-05-05T14:54:14.850Z,31.02
2019-05-05T14:56:45.484Z,32.22
2019-05-05T14:59:19.014Z,33.07
2019-05-05T15:01:49.921Z,31.62
2019-05-05T15:04:23.617Z,31.37
2019-05-05T15:06:55.599Z,30.86
2019-05-05T15:09:44.142Z,30.33
2019-05-05T15:12:19.778Z,30.76
2019-05-05T15:14:54.490Z,30.55
2019-05-05T15:17:26.999Z,30.51
2019-05-05T15:20:00.092Z,31.29
2019-05-05T15:22:31.325Z,32.07
2019-05-05T15:25:04.167Z,30.87
2019-05-05T15:27:34.959Z,29.80
2019-05-05T15:30:10.167Z,30.73
2019-05-05T15:32:40.901Z,30.80
2019-05-05T15:35:14.316Z,30.64
2019-05-05T15:37:45.747Z,30.40
2019-05-05T15:40:16.738Z,29.46
2019-05-05T15:42:47.114Z,30.02
2019-05-05T15:45:17.946Z,30.39
2019-05-05T15:47:48.629Z,28.53
2019-05-05T15:50:22.935Z,27.85
2019-05-05T15:52:54.497Z,28.16
2019-05-05T15:55:25.683Z,28.48
2019-05-05T15:57:56.931Z,28.96
2019-05-05T16:00:27.863Z,28.86
2019-05-05T16:02:58.625Z,28.44
2019-05-05T16:05:29.348Z,27.91
2019-05-05T16:08:01.800Z,28.07
2019-05-05T16:10:32.233Z,27.53
2019-05-05T16:13:04.451Z,27.54
2019-05-05T16:15:37.485Z,27.29
2019-05-05T16:18:09.748Z,27.07
2019-05-05T16:21:00.148Z,27.13
2019-05-05T16:23:50.119Z,27.04
2019-05-05T16:26:21.615Z,26.24
2019-05-05T16:28:55.006Z,26.19
2019-05-05T16:31:24.647Z,25.41
2019-05-05T16:33:55.407Z,25.10
2019-05-05T16:36:26.550Z,24.04
2019-05-05T16:38:57.205Z,23.16
2019-05-05T16:41:28.030Z,23.14
2019-05-05T16:44:02.435Z,22.74
2019-05-05T16:46:34.167Z,22.44
2019-05-05T16:49:05.230Z,22.23
2019-05-05T16:51:54.419Z,21.81
2019-05-05T16:54:29.539Z,21.49
2019-05-05T16:57:01.099Z,21.15
2019-05-05T16:59:34.011Z,20.86
2019-05-05T17:02:04.846Z,20.66
2019-05-05T17:04:35.758Z,20.49
2019-05-05T17:07:08.920Z,20.31
2019-05-05T17:09:40.890Z,20.19
2019-05-05T17:12:15.212Z,20.01
2019-05-05T17:14:50.367Z,19.90
2019-05-05T17:17:26.129Z,19.73
2019-05-05T17:20:07.476Z,19.69
2019-05-05T17:22:58.066Z,19.63
2019-05-05T17:25:34.279Z,19.53
2019-05-05T17:28:05.171Z,19.42
2019-05-05T17:30:36.272Z,19.39
2019-05-05T17:33:08.072Z,19.34
2019-05-05T17:35:42.282Z,19.28
2019-05-05T17:38:17.242Z,19.19
2019-05-05T17:41:23.986Z,19.17
2019-05-05T17:44:08.544Z,19.03
2019-05-05T17:46:46.959Z,18.94
2019-05-05T17:49:31.616Z,18.88
2019-05-05T17:52:17.109Z,18.79
2019-05-05T17:54:49.467Z,18.74
2019-05-05T17:57:20.712Z,18.66
2019-05-05T17:59:53.470Z,18.62
2019-05-05T18:02:25.458Z,18.54
2019-05-05T18:04:57.004Z,18.44
2019-05-05T18:07:29.409Z,18.36
2019-05-05T18:10:04.127Z,18.34
2019-05-05T18:12:36.366Z,18.26
2019-05-05T18:15:13.552Z,18.24
2019-05-05T18:17:44.594Z,18.19
2019-05-05T18:20:15.822Z,18.16
2019-05-05T18:22:46.484Z,18.11
2019-05-05T18:25:17.708Z,18.02
2019-05-05T18:27:48.860Z,18.03
2019-05-05T18:30:20.059Z,17.75
2019-05-05T18:32:53.333Z,17.94
2019-05-05T18:35:24.663Z,17.88
2019-05-05T18:37:56.390Z,17.82
2019-05-05T18:40:27.643Z,17.76
2019-05-05T18:43:00.105Z,17.68
2019-05-05T18:45:30.951Z,17.67
2019-05-05T18:48:04.430Z,17.69
2019-05-05T18:50:35.277Z,17.63
2019-05-05T18:53:05.614Z,17.56
2019-05-05T18:55:38.717Z,17.52
2019-05-05T18:58:09.384Z,17.49
2019-05-05T19:00:54.617Z,17.44
2019-05-05T19:03:36.492Z,17.35
2019-05-05T19:06:08.885Z,17.34
2019-05-05T19:08:53.597Z,17.31
2019-05-05T19:11:16.871Z,17.28
2019-05-05T19:13:48.020Z,17.23
2019-05-05T19:16:23.727Z,17.19
2019-05-05T19:18:55.731Z,17.14
2019-05-05T19:21:28.096Z,17.08
2019-05-05T19:24:00.368Z,17.05
2019-05-05T19:26:33.764Z,16.98
2019-05-05T19:29:05.073Z,16.95
2019-05-05T19:31:36.692Z,16.88
2019-05-05T19:34:08.334Z,16.85
2019-05-05T19:36:38.942Z,16.78
2019-05-05T19:39:09.675Z,16.77
2019-05-05T19:41:40.292Z,16.69
2019-05-05T19:44:11.250Z,16.62
2019-05-05T19:46:49.247Z,16.55
2019-05-05T19:49:24.081Z,16.51
2019-05-05T19:51:54.299Z,16.47
2019-05-05T19:54:25.125Z,16.38
2019-05-05T19:56:59.750Z,16.37
2019-05-05T19:59:30.386Z,16.26
2019-05-05T20:02:03.450Z,16.28
2019-05-05T20:04:33.853Z,16.24
2019-05-05T20:07:04.790Z,16.21
2019-05-05T20:09:38.388Z,16.19
2019-05-05T20:12:09.098Z,16.19
2019-05-05T20:14:43.479Z,16.17
2019-05-05T20:17:15.135Z,16.12
2019-05-05T20:19:46.349Z,16.08
2019-05-05T20:22:17.009Z,16.03
2019-05-05T20:24:47.947Z,15.99
2019-05-05T20:27:19.319Z,15.91
2019-05-05T20:29:50.861Z,15.88
2019-05-05T20:32:24.468Z,15.82
2019-05-05T20:35:04.089Z,15.80
2019-05-05T20:37:54.146Z,15.76
2019-05-05T20:40:30.126Z,15.70
2019-05-05T20:43:01.168Z,15.67
2019-05-05T20:45:34.658Z,15.63
2019-05-05T20:48:05.655Z,15.57
2019-05-05T20:50:36.537Z,14.86
2019-05-05T20:53:09.012Z,15.50
2019-05-05T20:55:40.605Z,15.44
2019-05-05T20:58:11.601Z,15.44
2019-05-05T21:00:44.219Z,15.37
2019-05-05T21:03:15.032Z,15.33
2019-05-05T21:05:46.654Z,15.32
2019-05-05T21:08:17.303Z,15.24
2019-05-05T21:10:48.133Z,15.22
2019-05-05T21:13:20.082Z,15.18
2019-05-05T21:15:50.581Z,15.22
2019-05-05T21:18:23.804Z,15.20
2019-05-05T21:20:56.183Z,15.14
2019-05-05T21:23:34.411Z,15.15
2019-05-05T21:26:19.149Z,15.10
2019-05-05T21:28:50.094Z,15.09
2019-05-05T21:31:21.331Z,15.16
2019-05-05T21:33:52.062Z,15.15
2019-05-05T21:36:24.295Z,15.13
2019-05-05T21:38:56.020Z,14.98
2019-05-05T21:41:26.925Z,14.96
2019-05-05T21:43:57.968Z,14.98
2019-05-05T21:46:28.801Z,14.95
2019-05-05T21:48:59.742Z,14.96
2019-05-05T21:51:35.038Z,14.93
2019-05-05T21:54:26.292Z,14.95
2019-05-05T21:56:58.505Z,14.93
2019-05-05T21:59:31.135Z,14.87
2019-05-05T22:02:03.874Z,14.80
2019-05-05T22:04:35.381Z,14.77
2019-05-05T22:07:06.092Z,14.77
2019-05-05T22:09:36.831Z,14.69
2019-05-05T22:12:07.863Z,14.59
2019-05-05T22:14:39.721Z,14.60
2019-05-05T22:17:10.223Z,14.56
2019-05-05T22:20:00.568Z,14.57
2019-05-05T22:22:33.571Z,14.52
2019-05-05T22:25:05.898Z,14.56
2019-05-05T22:27:37.643Z,14.49
2019-05-05T22:30:10.627Z,14.55
2019-05-05T22:32:44.136Z,14.49
2019-05-05T22:35:16.305Z,14.49
2019-05-05T22:37:48.212Z,14.50
2019-05-05T22:40:24.153Z,14.46
2019-05-05T22:42:54.653Z,14.43
2019-05-05T22:45:26.115Z,14.47
2019-05-05T22:47:56.426Z,14.48
2019-05-05T22:50:27.177Z,14.50
2019-05-05T22:52:58.192Z,14.55
2019-05-05T22:55:29.147Z,14.55
2019-05-05T22:58:00.987Z,14.55
2019-05-05T23:00:31.714Z,14.53
2019-05-05T23:03:16.133Z,14.50
2019-05-05T23:05:57.553Z,14.51
2019-05-05T23:08:29.991Z,14.52
2019-05-05T23:11:04.088Z,14.44
2019-05-05T23:13:34.770Z,14.39
2019-05-05T23:16:10.927Z,14.36
2019-05-05T23:18:44.533Z,14.31
2019-05-05T23:21:24.730Z,14.33
2019-05-05T23:24:07.274Z,14.31
2019-05-05T23:26:39.365Z,14.36
2019-05-05T23:29:10.799Z,14.36
2019-05-05T23:31:44.440Z,14.39
2019-05-05T23:34:15.746Z,14.43
2019-05-05T23:36:46.397Z,14.48
2019-05-05T23:39:18.341Z,14.49
2019-05-05T23:41:49.073Z,14.51
2019-05-05T23:44:23.814Z,14.50
2019-05-05T23:46:54.333Z,14.51
2019-05-05T23:49:25.469Z,14.51
2019-05-05T23:51:56.194Z,14.52
2019-05-05T23:54:28.376Z,14.54
2019-05-05T23:57:00.751Z,14.57
2019-05-05T23:59:31.600Z,14.58
